LGTS/SKG METAR and TAF weather

Enter ICAO airport designator
Station Type Date Time Source
LGTS METAR 2020/07/11 17:20 UTC NOAA

LGTS 111720Z 18010KT CAVOK 28/19 Q1012 NOSIG


Station Type Date Time Source
LGTS Decoded METAR 2020/07/11 17:20 UTC NOAA

Thessaloniki Airport , Greece (LGTS) 40-31N 022-58E 4M
Jul 11, 2020 - 01:20 PM EDT / 2020.07.11 1720 UTC
Wind: from the S (180 degrees) at 12 MPH (10 KT):0
Visibility: greater than 7 mile(s):0
Temperature: 82 F (28 C)
Dew Point: 66 F (19 C)
Relative Humidity: 58%
Pressure (altimeter): 29.88 in. Hg (1012 hPa)
ob: LGTS 111720Z 18010KT CAVOK 28/19 Q1012 NOSIG
cycle: 17

Station Type Date Time Source
LGTS TAF 2020/07/11 18:16 UTC NOAA

TAF LGTS 111700Z 1118/1218 18012KT 9999 FEW030
BECMG 1118/1120 VRB03KT PROB40
TEMPO 1210/1218 6000 SHRA FEW020TCU SCT030 PROB30 1212/1218 5000 TSRA FEW018CB SCT030
BECMG 1212/1214 18010KT

Example: see airport list